createdAt,value
2023-04-18T00:01:31.997Z,100.00
2023-04-18T00:04:00.363Z,100.00
2023-04-18T00:06:30.076Z,100.00
2023-04-18T00:08:58.393Z,100.00
2023-04-18T00:11:27.358Z,100.00
2023-04-18T00:13:55.624Z,100.00
2023-04-18T00:16:25.576Z,100.00
2023-04-18T00:18:54.365Z,100.00
2023-04-18T00:21:23.890Z,100.00
2023-04-18T00:23:52.284Z,100.00
2023-04-18T00:26:20.654Z,100.00
2023-04-18T00:28:52.337Z,100.00
2023-04-18T00:31:20.705Z,100.00
2023-04-18T00:33:50.735Z,100.00
2023-04-18T00:36:19.056Z,100.00
2023-04-18T00:38:47.222Z,100.00
2023-04-18T00:41:16.711Z,100.00
2023-04-18T00:43:44.959Z,100.00
2023-04-18T00:46:13.208Z,100.00
2023-04-18T00:48:41.553Z,100.00
2023-04-18T00:51:11.340Z,100.00
2023-04-18T00:53:39.881Z,100.00
2023-04-18T00:56:08.687Z,100.00
2023-04-18T00:58:37.135Z,100.00
2023-04-18T01:01:05.814Z,100.00
2023-04-18T01:03:34.986Z,100.00
2023-04-18T01:06:04.533Z,100.00
2023-04-18T01:08:36.246Z,100.00
2023-04-18T01:11:06.870Z,100.00
2023-04-18T01:13:35.379Z,100.00
2023-04-18T01:16:05.567Z,100.00
2023-04-18T01:18:35.266Z,100.00
2023-04-18T01:21:03.829Z,100.00
2023-04-18T01:23:32.075Z,100.00
2023-04-18T01:26:01.704Z,100.00
2023-04-18T01:28:29.961Z,100.00
2023-04-18T01:31:09.842Z,100.00
2023-04-18T01:33:49.889Z,100.00
2023-04-18T01:36:29.336Z,100.00
2023-04-18T01:48:42.507Z,100.00
2023-04-18T01:51:10.959Z,100.00
2023-04-18T01:56:40.912Z,100.00
2023-04-18T01:59:10.803Z,100.00
2023-04-18T02:01:40.017Z,100.00
2023-04-18T02:04:08.285Z,100.00
2023-04-18T02:06:36.599Z,100.00
2023-04-18T02:09:04.896Z,100.00
2023-04-18T02:11:33.253Z,100.00
2023-04-18T02:14:04.565Z,100.00
2023-04-18T02:16:35.138Z,100.00
2023-04-18T02:19:04.681Z,100.00
2023-04-18T02:21:32.932Z,100.00
2023-04-18T02:24:03.646Z,100.00
2023-04-18T02:26:31.930Z,100.00
2023-04-18T02:29:00.294Z,100.00
2023-04-18T02:31:32.177Z,100.00
2023-04-18T02:34:01.998Z,100.00
2023-04-18T02:36:31.157Z,100.00
2023-04-18T02:38:59.444Z,100.00
2023-04-18T02:41:27.725Z,100.00
2023-04-18T02:43:56.392Z,100.00
2023-04-18T02:46:25.827Z,100.00
2023-04-18T02:48:54.563Z,100.00
2023-04-18T02:51:28.171Z,100.00
2023-04-18T02:53:58.924Z,100.00
2023-04-18T02:56:32.780Z,100.00
2023-04-18T02:59:39.266Z,100.00
2023-04-18T03:02:21.182Z,100.00
2023-04-18T03:04:56.480Z,100.00
2023-04-18T03:07:26.645Z,100.00
2023-04-18T03:09:54.888Z,100.00
2023-04-18T03:12:27.620Z,100.00
2023-04-18T03:14:55.996Z,100.00
2023-04-18T03:17:24.335Z,100.00
2023-04-18T03:19:53.955Z,100.00
2023-04-18T03:22:22.392Z,100.00
2023-04-18T03:25:00.247Z,100.00
2023-04-18T03:27:44.744Z,100.00
2023-04-18T03:30:15.636Z,100.00
2023-04-18T03:32:49.097Z,100.00
2023-04-18T03:35:17.970Z,100.00
2023-04-18T03:37:46.335Z,100.00
2023-04-18T03:40:22.993Z,100.00
2023-04-18T03:43:06.323Z,100.00
2023-04-18T03:46:17.741Z,100.00
2023-04-18T03:48:47.570Z,100.00
2023-04-18T03:51:15.987Z,100.00
2023-04-18T03:53:44.531Z,100.00
2023-04-18T03:56:16.035Z,100.00
2023-04-18T03:58:54.716Z,100.00
2023-04-18T04:01:23.852Z,100.00
2023-04-18T04:03:53.939Z,100.00
2023-04-18T04:06:22.865Z,100.00
2023-04-18T04:08:51.276Z,100.00
2023-04-18T04:11:25.669Z,100.00
2023-04-18T04:13:54.599Z,100.00
2023-04-18T04:16:28.996Z,100.00
2023-04-18T04:18:58.028Z,100.00
2023-04-18T04:21:32.994Z,100.00
2023-04-18T04:24:02.613Z,100.00
2023-04-18T04:26:37.832Z,100.00
2023-04-18T04:29:14.318Z,100.00
2023-04-18T04:31:44.616Z,100.00
2023-04-18T04:34:13.756Z,100.00
2023-04-18T04:36:43.226Z,100.00
2023-04-18T04:39:14.416Z,100.00
2023-04-18T04:42:04.732Z,100.00
2023-04-18T04:44:43.113Z,100.00
2023-04-18T04:47:12.846Z,100.00
2023-04-18T04:49:41.245Z,100.00
2023-04-18T04:52:09.576Z,100.00
2023-04-18T04:54:38.014Z,100.00
2023-04-18T04:57:10.757Z,100.00
2023-04-18T04:59:38.988Z,100.00
2023-04-18T05:02:07.585Z,100.00
2023-04-18T05:04:36.369Z,100.00
2023-04-18T05:07:07.123Z,100.00
2023-04-18T05:09:35.457Z,100.00
2023-04-18T05:12:03.969Z,100.00
2023-04-18T05:14:33.676Z,100.00
2023-04-18T05:17:02.782Z,100.00
2023-04-18T05:19:31.328Z,100.00
2023-04-18T05:21:59.692Z,100.00
2023-04-18T05:24:30.625Z,100.00
2023-04-18T05:26:59.114Z,100.00
2023-04-18T05:29:27.483Z,100.00
2023-04-18T05:32:10.153Z,100.00
2023-04-18T05:34:38.962Z,100.00
2023-04-18T05:37:07.214Z,100.00
2023-04-18T05:39:35.635Z,100.00
2023-04-18T05:42:03.955Z,100.00
2023-04-18T05:44:32.145Z,100.00
2023-04-18T05:47:02.107Z,100.00
2023-04-18T05:49:30.818Z,100.00
2023-04-18T05:51:59.283Z,100.00
2023-04-18T05:54:27.654Z,100.00
2023-04-18T05:56:57.146Z,100.00
2023-04-18T05:59:26.901Z,100.00
2023-04-18T06:01:55.449Z,100.00
2023-04-18T06:04:27.051Z,100.00
2023-04-18T06:06:56.183Z,100.00
2023-04-18T06:09:24.491Z,100.00
2023-04-18T06:11:54.044Z,100.00
2023-04-18T06:14:22.980Z,100.00
2023-04-18T06:16:51.679Z,100.00
2023-04-18T06:19:20.148Z,100.00
2023-04-18T06:21:50.029Z,100.00
2023-04-18T06:24:18.349Z,100.00
2023-04-18T06:26:46.688Z,100.00
2023-04-18T06:29:18.162Z,100.00
2023-04-18T06:31:48.439Z,100.00
2023-04-18T06:34:16.828Z,100.00
2023-04-18T06:36:46.387Z,100.00
2023-04-18T06:39:16.071Z,100.00
2023-04-18T06:41:44.488Z,100.00
2023-04-18T06:44:17.632Z,100.00
2023-04-18T06:46:46.286Z,100.00
2023-04-18T06:49:14.880Z,100.00
2023-04-18T06:51:43.466Z,100.00
2023-04-18T06:54:12.159Z,100.00
2023-04-18T06:56:42.020Z,100.00
2023-04-18T06:59:10.550Z,100.00
2023-04-18T07:01:42.235Z,100.00
2023-04-18T07:04:11.069Z,100.00
2023-04-18T07:06:39.604Z,100.00
2023-04-18T07:09:08.097Z,100.00
2023-04-18T07:11:36.643Z,100.00
2023-04-18T07:14:06.460Z,100.00
2023-04-18T07:16:36.128Z,100.00
2023-04-18T07:19:05.182Z,100.00
2023-04-18T07:21:33.687Z,100.00
2023-04-18T07:24:02.128Z,100.00
2023-04-18T07:26:30.959Z,100.00
2023-04-18T07:28:59.904Z,100.00
2023-04-18T07:31:31.368Z,100.00
2023-04-18T07:33:59.994Z,98.02
2023-04-18T07:36:28.462Z,95.73
2023-04-18T07:38:56.766Z,92.94
2023-04-18T07:41:25.052Z,88.77
2023-04-18T07:43:53.455Z,84.60
2023-04-18T07:46:40.005Z,83.22
2023-04-18T07:49:10.877Z,81.52
2023-04-18T07:51:39.481Z,76.03
2023-04-18T07:54:07.715Z,75.12
2023-04-18T07:56:36.389Z,72.65
2023-04-18T07:59:04.719Z,76.03
2023-04-18T08:01:33.451Z,78.93
2023-04-18T08:04:02.452Z,80.07
2023-04-18T08:06:34.738Z,80.94
2023-04-18T08:09:05.670Z,81.25
2023-04-18T08:11:34.731Z,78.97
2023-04-18T08:14:03.136Z,75.62
2023-04-18T08:16:31.515Z,75.42
2023-04-18T08:18:59.872Z,74.06
2023-04-18T08:21:28.005Z,75.60
2023-04-18T08:23:57.839Z,76.85
2023-04-18T08:26:26.094Z,77.74
2023-04-18T08:28:56.839Z,80.27
2023-04-18T08:31:25.713Z,82.83
2023-04-18T08:33:56.132Z,91.13
2023-04-18T08:36:25.036Z,91.15
2023-04-18T08:38:53.375Z,88.90
2023-04-18T08:41:24.225Z,90.60
2023-04-18T08:43:52.906Z,100.00
2023-04-18T08:46:22.870Z,97.16
2023-04-18T08:48:53.743Z,95.32
2023-04-18T08:51:22.676Z,90.23
2023-04-18T08:53:51.521Z,98.96
2023-04-18T08:56:22.475Z,100.00
2023-04-18T08:58:53.539Z,100.00
2023-04-18T09:01:23.122Z,100.00
2023-04-18T09:03:52.021Z,100.00
2023-04-18T09:06:20.403Z,96.00
2023-04-18T09:08:57.727Z,94.25
2023-04-18T09:11:29.257Z,97.97
2023-04-18T09:13:59.987Z,97.25
2023-04-18T09:16:29.392Z,95.75
2023-04-18T09:19:13.144Z,93.09
2023-04-18T09:21:44.596Z,90.47
2023-04-18T09:24:24.314Z,84.47
2023-04-18T09:26:54.210Z,83.82
2023-04-18T09:29:24.854Z,80.18
2023-04-18T09:31:57.750Z,77.34
2023-04-18T09:34:26.475Z,75.92
2023-04-18T09:37:11.201Z,75.55
2023-04-18T09:39:40.343Z,80.12
2023-04-18T09:42:10.575Z,79.41
2023-04-18T09:44:40.665Z,78.83
2023-04-18T09:47:09.916Z,77.95
2023-04-18T09:49:38.162Z,82.50
2023-04-18T09:52:07.966Z,84.27
2023-04-18T09:54:40.398Z,84.03
2023-04-18T09:57:13.665Z,85.63
2023-04-18T09:59:47.759Z,84.45
2023-04-18T10:02:19.509Z,84.58
2023-04-18T10:04:48.503Z,83.77
2023-04-18T10:07:17.513Z,90.46
2023-04-18T10:09:48.072Z,88.24
2023-04-18T10:12:18.332Z,87.74
2023-04-18T10:14:48.300Z,87.55
2023-04-18T10:17:16.759Z,85.79
2023-04-18T10:19:46.887Z,95.30
2023-04-18T10:22:15.197Z,99.56
2023-04-18T10:24:53.140Z,88.31
2023-04-18T10:27:57.758Z,85.23
2023-04-18T10:31:05.891Z,88.63
2023-04-18T10:33:42.424Z,100.00
2023-04-18T10:36:17.011Z,92.52
2023-04-18T10:38:49.671Z,89.96
2023-04-18T10:41:26.361Z,89.38
2023-04-18T10:44:18.391Z,90.44
2023-04-18T10:47:33.321Z,91.82
2023-04-18T10:50:06.813Z,90.10
2023-04-18T10:52:35.667Z,90.36
2023-04-18T10:55:17.589Z,90.84
2023-04-18T10:57:47.991Z,89.38
2023-04-18T11:00:18.421Z,100.00
2023-04-18T11:02:52.113Z,90.85
2023-04-18T11:05:23.862Z,89.68
2023-04-18T11:07:52.359Z,85.12
2023-04-18T11:10:22.128Z,83.02
2023-04-18T11:12:50.571Z,84.69
2023-04-18T11:15:21.885Z,85.13
2023-04-18T11:17:58.244Z,86.66
2023-04-18T11:20:28.641Z,88.76
2023-04-18T11:22:58.376Z,90.37
2023-04-18T11:25:29.047Z,90.06
2023-04-18T11:27:59.943Z,90.55
2023-04-18T11:30:28.657Z,91.79
2023-04-18T11:32:57.039Z,89.70
2023-04-18T11:35:25.439Z,84.87
2023-04-18T11:37:56.224Z,83.26
2023-04-18T11:40:24.501Z,86.18
2023-04-18T11:42:55.824Z,84.47
2023-04-18T11:45:24.207Z,84.23
2023-04-18T11:47:58.210Z,91.72
2023-04-18T11:50:27.158Z,98.16
2023-04-18T11:52:57.681Z,100.00
2023-04-18T11:55:27.338Z,100.00
2023-04-18T11:57:57.085Z,100.00
2023-04-18T12:00:33.760Z,100.00
2023-04-18T12:03:04.587Z,100.00
2023-04-18T12:05:34.775Z,100.00
2023-04-18T12:08:09.407Z,100.00
2023-04-18T12:10:37.850Z,100.00
2023-04-18T12:13:09.031Z,100.00
2023-04-18T12:15:40.413Z,100.00
2023-04-18T12:18:09.605Z,100.00
2023-04-18T12:20:39.424Z,100.00
2023-04-18T12:23:09.430Z,100.00
2023-04-18T12:25:38.545Z,100.00
2023-04-18T12:28:15.607Z,100.00
2023-04-18T12:30:43.868Z,100.00
2023-04-18T12:33:12.692Z,100.00
2023-04-18T12:35:41.225Z,100.00
2023-04-18T12:38:11.107Z,100.00
2023-04-18T12:40:40.358Z,100.00
2023-04-18T12:43:09.041Z,100.00
2023-04-18T12:45:37.339Z,100.00
2023-04-18T12:48:05.966Z,100.00
2023-04-18T12:50:34.388Z,95.99
2023-04-18T12:53:03.382Z,91.37
2023-04-18T12:55:33.282Z,87.89
2023-04-18T12:58:01.771Z,87.39
2023-04-18T13:00:31.802Z,85.47
2023-04-18T13:03:01.055Z,84.19
2023-04-18T13:05:33.623Z,83.98
2023-04-18T13:10:35.323Z,85.15
2023-04-18T13:13:03.554Z,84.80
2023-04-18T13:15:31.894Z,84.40
2023-04-18T13:18:04.602Z,86.72
2023-04-18T13:20:33.378Z,89.18
2023-04-18T13:23:02.005Z,91.20
2023-04-18T13:25:30.710Z,91.73
2023-04-18T13:28:01.174Z,95.12
2023-04-18T13:30:29.749Z,89.42
2023-04-18T13:32:58.146Z,92.95
2023-04-18T13:35:26.598Z,92.65
2023-04-18T13:37:54.821Z,96.94
2023-04-18T13:40:23.349Z,98.16
2023-04-18T13:42:51.673Z,100.00
2023-04-18T13:45:21.718Z,100.00
2023-04-18T13:47:50.044Z,100.00
2023-04-18T13:50:18.369Z,100.00
2023-04-18T13:52:48.246Z,100.00
2023-04-18T13:55:17.977Z,100.00
2023-04-18T13:57:46.202Z,100.00
2023-04-18T14:00:15.547Z,100.00
2023-04-18T14:02:45.340Z,100.00
2023-04-18T14:05:13.971Z,100.00
2023-04-18T14:07:42.270Z,100.00
2023-04-18T14:10:11.346Z,100.00
2023-04-18T14:12:40.100Z,100.00
2023-04-18T14:15:09.758Z,100.00
2023-04-18T14:17:38.087Z,100.00
2023-04-18T14:20:09.706Z,100.00
2023-04-18T14:22:38.306Z,100.00
2023-04-18T14:25:08.604Z,100.00
2023-04-18T14:27:37.537Z,100.00
2023-04-18T14:30:08.766Z,100.00
2023-04-18T14:32:37.149Z,100.00
2023-04-18T14:35:09.376Z,100.00
2023-04-18T14:37:38.078Z,100.00
2023-04-18T14:40:09.998Z,100.00
2023-04-18T14:42:38.933Z,100.00
2023-04-18T14:45:09.205Z,100.00
2023-04-18T14:47:39.233Z,100.00
2023-04-18T14:50:11.938Z,100.00
2023-04-18T14:52:40.891Z,100.00
2023-04-18T14:55:10.898Z,100.00
2023-04-18T14:57:39.932Z,100.00
2023-04-18T15:00:10.819Z,100.00
2023-04-18T15:02:39.491Z,100.00
2023-04-18T15:05:11.587Z,100.00
2023-04-18T15:07:40.891Z,100.00
2023-04-18T15:10:12.765Z,100.00
2023-04-18T15:12:41.711Z,100.00
2023-04-18T15:15:10.714Z,100.00
2023-04-18T15:17:39.164Z,100.00
2023-04-18T15:20:10.703Z,100.00
2023-04-18T15:22:39.030Z,100.00
2023-04-18T15:25:08.571Z,100.00
2023-04-18T15:27:37.158Z,100.00
2023-04-18T15:30:08.333Z,100.00
2023-04-18T15:32:37.114Z,100.00
2023-04-18T15:35:06.659Z,100.00
2023-04-18T15:37:36.479Z,100.00
2023-04-18T15:40:06.990Z,100.00
2023-04-18T15:42:35.329Z,100.00
2023-04-18T15:45:04.928Z,100.00
2023-04-18T15:47:34.634Z,100.00
2023-04-18T15:50:03.817Z,100.00
2023-04-18T15:52:32.284Z,100.00
2023-04-18T15:55:02.233Z,100.00
2023-04-18T15:57:32.350Z,100.00
2023-04-18T16:00:01.544Z,100.00
2023-04-18T16:02:29.971Z,100.00
2023-04-18T16:04:58.371Z,100.00
2023-04-18T16:07:26.640Z,100.00
2023-04-18T16:09:55.102Z,100.00
2023-04-18T16:12:24.910Z,100.00
2023-04-18T16:14:53.168Z,100.00
2023-04-18T16:17:21.504Z,100.00
2023-04-18T16:19:49.740Z,100.00
2023-04-18T16:22:18.092Z,100.00
2023-04-18T16:24:46.531Z,100.00
2023-04-18T16:27:14.816Z,100.00
2023-04-18T16:29:47.320Z,100.00
2023-04-18T16:32:18.335Z,100.00
2023-04-18T16:34:46.898Z,100.00
2023-04-18T16:37:15.382Z,100.00
2023-04-18T16:39:44.122Z,100.00
2023-04-18T16:42:15.307Z,100.00
2023-04-18T16:44:48.300Z,100.00
2023-04-18T16:47:16.954Z,100.00
2023-04-18T16:49:46.751Z,100.00
2023-04-18T16:52:16.760Z,100.00
2023-04-18T16:54:45.301Z,100.00
2023-04-18T16:57:14.554Z,100.00
2023-04-18T16:59:43.087Z,100.00
2023-04-18T17:02:12.974Z,100.00
2023-04-18T17:04:42.254Z,100.00
2023-04-18T17:07:10.632Z,100.00
2023-04-18T17:09:39.222Z,100.00
2023-04-18T17:12:07.988Z,100.00
2023-04-18T17:14:37.376Z,100.00
2023-04-18T17:17:06.144Z,100.00
2023-04-18T17:19:36.981Z,100.00
2023-04-18T17:22:06.363Z,100.00
2023-04-18T17:24:35.681Z,100.00
2023-04-18T17:27:04.796Z,100.00
2023-04-18T17:29:34.722Z,100.00
2023-04-18T17:32:04.010Z,100.00
2023-04-18T17:34:34.339Z,100.00
2023-04-18T17:37:06.731Z,100.00
2023-04-18T17:39:36.305Z,100.00
2023-04-18T17:42:05.760Z,100.00
2023-04-18T17:44:35.407Z,100.00
2023-04-18T17:47:05.714Z,100.00
2023-04-18T17:49:37.386Z,100.00
2023-04-18T17:52:08.729Z,100.00
2023-04-18T17:54:38.540Z,100.00
2023-04-18T17:57:07.837Z,100.00
2023-04-18T17:59:38.707Z,100.00
2023-04-18T18:02:08.033Z,100.00
2023-04-18T18:04:38.139Z,100.00
2023-04-18T18:07:08.786Z,100.00
2023-04-18T18:09:38.599Z,100.00
2023-04-18T18:12:08.365Z,100.00
2023-04-18T18:14:41.264Z,100.00
2023-04-18T18:17:19.180Z,100.00
2023-04-18T18:19:50.849Z,100.00
2023-04-18T18:22:25.085Z,100.00
2023-04-18T18:24:55.257Z,100.00
2023-04-18T18:27:25.165Z,100.00
2023-04-18T18:29:55.558Z,100.00
2023-04-18T18:32:27.732Z,100.00
2023-04-18T18:34:58.600Z,100.00
2023-04-18T18:37:31.542Z,100.00
2023-04-18T18:40:02.364Z,100.00
2023-04-18T18:42:32.310Z,100.00
2023-04-18T18:45:06.126Z,100.00
2023-04-18T18:47:39.793Z,100.00
2023-04-18T18:50:10.795Z,100.00
2023-04-18T18:52:44.345Z,100.00
2023-04-18T18:55:14.760Z,100.00
2023-04-18T18:57:47.800Z,100.00
2023-04-18T19:00:19.151Z,100.00
2023-04-18T19:02:50.329Z,100.00
2023-04-18T19:05:23.826Z,100.00
2023-04-18T19:08:07.656Z,100.00
2023-04-18T19:10:38.297Z,100.00
2023-04-18T19:13:10.624Z,100.00
2023-04-18T19:18:32.329Z,100.00
2023-04-18T19:21:03.930Z,100.00
2023-04-18T19:23:43.158Z,100.00
2023-04-18T19:26:15.466Z,100.00
2023-04-18T19:28:45.069Z,100.00
2023-04-18T19:31:16.257Z,100.00
2023-04-18T19:33:51.073Z,100.00
2023-04-18T19:36:26.392Z,100.00
2023-04-18T19:39:03.784Z,100.00
2023-04-18T19:41:42.771Z,100.00
2023-04-18T19:44:13.983Z,100.00
2023-04-18T19:46:46.280Z,100.00
2023-04-18T19:49:17.389Z,100.00
2023-04-18T19:51:49.801Z,100.00
2023-04-18T19:54:21.871Z,100.00
2023-04-18T19:56:54.584Z,100.00
2023-04-18T19:59:23.602Z,100.00
2023-04-18T20:01:52.892Z,100.00
2023-04-18T20:04:26.369Z,100.00
2023-04-18T20:07:01.812Z,100.00
2023-04-18T20:09:36.023Z,100.00
2023-04-18T20:12:07.950Z,100.00
2023-04-18T20:14:42.582Z,100.00
2023-04-18T20:17:11.841Z,100.00
2023-04-18T20:19:42.662Z,100.00
2023-04-18T20:22:16.921Z,100.00
2023-04-18T20:24:49.801Z,100.00
2023-04-18T20:27:20.622Z,100.00
2023-04-18T20:29:51.785Z,100.00
2023-04-18T20:32:22.260Z,100.00
2023-04-18T20:34:52.280Z,100.00
2023-04-18T20:37:20.861Z,100.00
2023-04-18T20:39:54.000Z,100.00
2023-04-18T20:42:24.437Z,100.00
2023-04-18T20:44:55.911Z,100.00
2023-04-18T20:47:26.716Z,100.00
2023-04-18T20:49:59.431Z,100.00
2023-04-18T20:52:30.010Z,100.00
2023-04-18T20:54:59.855Z,100.00
2023-04-18T20:57:28.304Z,100.00
2023-04-18T20:59:58.762Z,100.00
2023-04-18T21:02:28.105Z,100.00
2023-04-18T21:04:57.085Z,100.00
2023-04-18T21:07:27.328Z,100.00
2023-04-18T21:09:55.768Z,100.00
2023-04-18T21:12:25.792Z,100.00
2023-04-18T21:14:54.395Z,100.00
2023-04-18T21:17:22.886Z,100.00
2023-04-18T21:19:51.386Z,100.00
2023-04-18T21:22:19.881Z,100.00
2023-04-18T21:24:48.422Z,100.00
2023-04-18T21:27:16.961Z,100.00
2023-04-18T21:29:46.633Z,100.00
2023-04-18T21:32:14.955Z,100.00
2023-04-18T21:34:43.189Z,100.00
2023-04-18T21:37:12.601Z,100.00
2023-04-18T21:39:42.567Z,100.00
2023-04-18T21:42:11.972Z,100.00
2023-04-18T21:44:40.361Z,100.00
2023-04-18T21:47:10.072Z,100.00
2023-04-18T21:49:38.260Z,100.00
2023-04-18T21:52:07.739Z,100.00
2023-04-18T21:54:36.011Z,100.00
2023-04-18T21:57:06.030Z,100.00
2023-04-18T21:59:34.300Z,100.00
2023-04-18T22:02:02.653Z,100.00
2023-04-18T22:04:32.898Z,100.00
2023-04-18T22:07:01.619Z,100.00
2023-04-18T22:09:31.551Z,100.00
2023-04-18T22:11:59.858Z,100.00
2023-04-18T22:14:28.409Z,100.00
2023-04-18T22:16:56.792Z,100.00
2023-04-18T22:19:25.069Z,100.00
2023-04-18T22:21:54.775Z,100.00
2023-04-18T22:24:24.757Z,100.00
2023-04-18T22:26:53.191Z,100.00
2023-04-18T22:29:21.370Z,100.00
2023-04-18T22:31:49.668Z,100.00
2023-04-18T22:34:18.163Z,100.00
2023-04-18T22:36:46.524Z,100.00
2023-04-18T22:39:16.160Z,100.00
2023-04-18T22:41:44.514Z,100.00
2023-04-18T22:44:12.954Z,100.00
2023-04-18T22:46:41.408Z,100.00
2023-04-18T22:49:09.748Z,100.00
2023-04-18T22:51:38.364Z,100.00
2023-04-18T22:54:06.759Z,100.00
2023-04-18T22:56:36.390Z,100.00
2023-04-18T22:59:04.719Z,100.00
2023-04-18T23:01:33.067Z,100.00
2023-04-18T23:04:01.608Z,100.00
2023-04-18T23:06:30.102Z,100.00
2023-04-18T23:08:58.423Z,100.00
2023-04-18T23:11:26.913Z,100.00
2023-04-18T23:13:56.475Z,100.00
2023-04-18T23:16:24.967Z,100.00
2023-04-18T23:18:53.283Z,100.00
2023-04-18T23:21:21.573Z,100.00
2023-04-18T23:23:49.859Z,100.00
2023-04-18T23:26:18.138Z,100.00
2023-04-18T23:28:46.425Z,100.00
2023-04-18T23:31:16.287Z,100.00
2023-04-18T23:33:45.458Z,100.00
2023-04-18T23:36:13.899Z,100.00
2023-04-18T23:38:42.395Z,100.00
2023-04-18T23:41:10.924Z,100.00
2023-04-18T23:43:39.378Z,100.00
2023-04-18T23:46:07.782Z,100.00
2023-04-18T23:48:37.448Z,100.00
2023-04-18T23:51:05.809Z,100.00
2023-04-18T23:53:34.049Z,100.00
2023-04-18T23:56:02.805Z,100.00
2023-04-18T23:58:31.780Z,100.00
